Time;durP1;ratioP1;P1;durP2;ratioP2;P2;SDS_P1;SDS_P2;PMS_P1;PMS_P2;Temp;Humidity;BMP_temperature;BMP_pressure;BME280_temperature;BME280_humidity;BME280_pressure;Samples;Min_cycle;Max_cycle;Signal;HPM_P1;HPM_P2
2022/01/18 00:01:51;;;;;;;;;;;;;;;;;;5023844;28;20016;-73
2022/01/18 00:04:18;;;;;;;;;;;;;;;;;;5023485;28;19925;-73
2022/01/18 00:06:48;;;;;;;;;;;;;;;;;;5025282;28;20306;-74
2022/01/18 00:09:18;;;;;;;;;;;;;;;;;;5026308;28;20129;-74
2022/01/18 00:11:49;;;;;;;;;;;;;;;;;;5023034;28;19925;-73
2022/01/18 00:14:24;;;;;;;;;;;;;;;;;;5021485;28;20338;-74
2022/01/18 00:17:03;;;;;;;;;;;;;;;;;;5025379;28;19936;-73
2022/01/18 00:19:30;;;;;;;;;;;;;;;;;;5024592;28;19971;-73
2022/01/18 00:22:10;;;;;;;;;;;;;;;;;;5022976;28;20008;-74
2022/01/18 00:24:39;;;;;;;;;;;;;;;;;;5022097;28;20012;-73
2022/01/18 00:27:09;;;;;;;;;;;;;;;;;;5020874;28;19980;-74
2022/01/18 00:29:38;;;;;;;;;;;;;;;;;;5023748;28;19952;-74
2022/01/18 00:32:12;;;;;;;;;;;;;;;;;;5022936;28;20016;-73
2022/01/18 00:34:40;;;;;;;;;;;;;;;;;;5029582;28;19961;-73
2022/01/18 00:39:48;;;;;;;;;;;;;;;;;;5025422;28;19921;-74
2022/01/18 00:42:15;;;;;;;;;;;;;;;;;;5021883;28;19932;-74
2022/01/18 00:44:42;;;;;;;;;;;;;;;;;;5021820;28;19968;-74
2022/01/18 00:47:09;;;;;;;;;;;;;;;;;;5024031;28;19925;-74
2022/01/18 00:49:41;;;;;;;;;;;;;;;;;;5025467;28;19933;-74
2022/01/18 00:52:08;;;;;;;;;;;;;;;;;;5021804;28;19925;-74
2022/01/18 00:54:39;;;;;;;;;;;;;;;;;;5024965;28;19947;-73
2022/01/18 00:57:06;;;;;;;;;;;;;;;;;;5020809;28;19971;-74
2022/01/18 00:59:33;;;;;;;;;;;;;;;;;;5023864;28;19929;-73
2022/01/18 01:02:00;;;;;;;;;;;;;;;;;;5022442;28;19933;-74
2022/01/18 01:04:31;;;;;;;;;;;;;;;;;;5024276;28;19936;-74
2022/01/18 01:06:58;;;;;;;;;;;;;;;;;;5023920;28;19925;-73
2022/01/18 01:09:25;;;;;;;;;;;;;;;;;;5026436;28;19925;-74
2022/01/18 01:11:52;;;;;;;;;;;;;;;;;;5025492;28;19925;-73
2022/01/18 01:14:22;;;;;;;;;;;;;;;;;;5021103;28;19929;-73
2022/01/18 01:16:59;;;;;;;;;;;;;;;;;;5021750;28;19932;-73
2022/01/18 01:19:47;;;;;;;;;;;;;;;;;;5020891;28;20409;-73
2022/01/18 01:33:52;;;;;;;;;;;;;;;;;;5026834;28;19987;-74
2022/01/18 01:42:01;;;;;;;;;;;;;;;;;;5028163;28;19920;-74
2022/01/18 01:44:39;;;;;;;;;;;;;;;;;;5025824;28;19957;-73
2022/01/18 01:47:06;;;;;;;;;;;;;;;;;;5021863;28;20260;-73
2022/01/18 01:49:33;;;;;;;;;;;;;;;;;;5019445;28;19925;-73
2022/01/18 01:52:00;;;;;;;;;;;;;;;;;;5029007;28;19925;-73
2022/01/18 01:54:27;;;;;;;;;;;;;;;;;;5030108;28;19929;-73
2022/01/18 01:56:54;;;;;;;;;;;;;;;;;;5030149;28;19925;-73
2022/01/18 01:59:21;;;;;;;;;;;;;;;;;;5025867;28;19933;-73
2022/01/18 02:01:48;;;;;;;;;;;;;;;;;;5024427;28;19925;-72
2022/01/18 02:04:15;;;;;;;;;;;;;;;;;;5023664;28;19929;-73
2022/01/18 02:06:42;;;;;;;;;;;;;;;;;;5028318;28;20298;-73
2022/01/18 02:09:09;;;;;;;;;;;;;;;;;;5019022;28;20268;-73
2022/01/18 02:11:36;;;;;;;;;;;;;;;;;;5023159;28;20375;-73
2022/01/18 02:14:05;;;;;;;;;;;;;;;;;;5026608;28;19926;-73
2022/01/18 02:22:01;;;;;;;;;;;;;;;;;;5024594;28;19924;-73
2022/01/18 02:24:28;;;;;;;;;;;;;;;;;;5027932;28;19925;-73
2022/01/18 02:26:55;;;;;;;;;;;;;;;;;;5026832;28;19925;-73
2022/01/18 02:29:22;;;;;;;;;;;;;;;;;;5027822;28;19952;-74
2022/01/18 02:31:49;;;;;;;;;;;;;;;;;;5031375;28;19941;-74
2022/01/18 02:34:16;;;;;;;;;;;;;;;;;;5028948;28;19925;-74
2022/01/18 02:36:43;;;;;;;;;;;;;;;;;;5023347;28;19926;-74
2022/01/18 02:39:09;;;;;;;;;;;;;;;;;;5027760;28;19932;-73
2022/01/18 02:41:36;;;;;;;;;;;;;;;;;;5028807;28;19944;-74
2022/01/18 02:44:03;;;;;;;;;;;;;;;;;;5028528;28;19931;-74
2022/01/18 02:46:30;;;;;;;;;;;;;;;;;;5029021;28;19932;-73
2022/01/18 02:48:57;;;;;;;;;;;;;;;;;;5025570;28;19929;-73
2022/01/18 02:51:24;;;;;;;;;;;;;;;;;;5024066;28;19925;-73
2022/01/18 02:53:52;;;;;;;;;;;;;;;;;;5023797;28;19933;-73
2022/01/18 02:56:19;;;;;;;;;;;;;;;;;;5027137;28;19929;-73
2022/01/18 02:58:46;;;;;;;;;;;;;;;;;;5023335;28;20399;-73
2022/01/18 03:04:00;;;;;;;;;;;;;;;;;;5001066;28;19921;-73
2022/01/18 03:06:26;;;;;;;;;;;;;;;;;;5026781;28;19932;-73
2022/01/18 03:08:53;;;;;;;;;;;;;;;;;;5017730;28;19926;-73
2022/01/18 03:11:20;;;;;;;;;;;;;;;;;;5020718;28;19932;-73
2022/01/18 03:13:47;;;;;;;;;;;;;;;;;;5029103;28;19932;-73
2022/01/18 03:16:14;;;;;;;;;;;;;;;;;;5023173;28;19933;-73
2022/01/18 03:18:41;;;;;;;;;;;;;;;;;;5023906;28;19929;-73
2022/01/18 03:21:10;;;;;;;;;;;;;;;;;;5026313;28;19925;-73
2022/01/18 03:23:37;;;;;;;;;;;;;;;;;;5023608;28;19933;-73
2022/01/18 03:26:14;;;;;;;;;;;;;;;;;;5023395;28;19932;-73
2022/01/18 03:28:40;;;;;;;;;;;;;;;;;;5019532;28;20134;-73
2022/01/18 03:31:07;;;;;;;;;;;;;;;;;;5020045;28;20003;-73
2022/01/18 03:33:34;;;;;;;;;;;;;;;;;;5025039;28;19925;-73
2022/01/18 03:36:01;;;;;;;;;;;;;;;;;;5019101;28;19937;-74
2022/01/18 03:38:30;;;;;;;;;;;;;;;;;;5019115;28;20107;-73
2022/01/18 03:40:57;;;;;;;;;;;;;;;;;;5021761;28;19929;-73
2022/01/18 03:43:24;;;;;;;;;;;;;;;;;;5027281;28;19983;-73
2022/01/18 03:45:54;;;;;;;;;;;;;;;;;;5022406;28;19929;-73
2022/01/18 03:48:28;;;;;;;;;;;;;;;;;;5024476;28;19936;-73
2022/01/18 03:50:55;;;;;;;;;;;;;;;;;;5022746;28;20359;-74
2022/01/18 03:53:23;;;;;;;;;;;;;;;;;;5028408;28;20271;-74
2022/01/18 03:55:50;;;;;;;;;;;;;;;;;;5020291;28;20379;-74
2022/01/18 03:58:17;;;;;;;;;;;;;;;;;;5029405;28;19929;-74
2022/01/18 04:00:44;;;;;;;;;;;;;;;;;;5023339;28;19929;-74
2022/01/18 04:03:11;;;;;;;;;;;;;;;;;;5025772;28;19929;-73
2022/01/18 04:05:38;;;;;;;;;;;;;;;;;;5029113;28;19932;-73
2022/01/18 04:08:05;;;;;;;;;;;;;;;;;;5027218;28;19925;-73
2022/01/18 04:10:32;;;;;;;;;;;;;;;;;;5021952;28;19930;-73
2022/01/18 04:12:59;;;;;;;;;;;;;;;;;;5022266;28;19925;-73
2022/01/18 04:15:26;;;;;;;;;;;;;;;;;;5018254;28;19957;-73
2022/01/18 04:18:09;;;;;;;;;;;;;;;;;;5021369;28;19925;-73
2022/01/18 04:26:54;;;;;;;;;;;;;;;;;;5017420;28;20010;-72
2022/01/18 04:28:53;;;;;;;;;;;;;;;;;;5023597;28;19948;-73
2022/01/18 04:31:20;;;;;;;;;;;;;;;;;;5023618;28;19925;-74
2022/01/18 04:33:47;;;;;;;;;;;;;;;;;;5026229;28;20024;-73
2022/01/18 04:36:14;;;;;;;;;;;;;;;;;;5016458;28;19925;-74
2022/01/18 04:38:41;;;;;;;;;;;;;;;;;;5015228;28;20310;-74
2022/01/18 04:41:08;;;;;;;;;;;;;;;;;;5024062;28;19932;-74
2022/01/18 04:44:04;;;;;;;;;;;;;;;;;;5024149;28;20437;-74
2022/01/18 04:49:16;;;;;;;;;;;;;;;;;;5019240;28;19939;-72
2022/01/18 04:51:44;;;;;;;;;;;;;;;;;;5024534;28;19932;-73
2022/01/18 04:54:12;;;;;;;;;;;;;;;;;;5020131;28;19970;-73
2022/01/18 04:59:23;;;;;;;;;;;;;;;;;;5024856;28;20010;-74
2022/01/18 05:01:51;;;;;;;;;;;;;;;;;;5020043;28;19925;-72
2022/01/18 05:04:18;;;;;;;;;;;;;;;;;;5023003;28;19937;-73
2022/01/18 05:06:45;;;;;;;;;;;;;;;;;;5024659;28;19933;-73
2022/01/18 05:09:12;;;;;;;;;;;;;;;;;;5024704;28;19930;-72
2022/01/18 05:11:46;;;;;;;;;;;;;;;;;;5026739;28;19926;-73
2022/01/18 05:14:22;;;;;;;;;;;;;;;;;;5022452;28;20291;-73
2022/01/18 05:16:57;;;;;;;;;;;;;;;;;;5028750;28;19991;-73
2022/01/18 05:19:29;;;;;;;;;;;;;;;;;;5021179;28;20020;-73
2022/01/18 05:24:49;;;;;;;;;;;;;;;;;;4988823;28;20301;-73
2022/01/18 05:27:16;;;;;;;;;;;;;;;;;;5027679;28;20383;-74
2022/01/18 05:29:42;;;;;;;;;;;;;;;;;;5024642;28;19925;-73
2022/01/18 05:32:09;;;;;;;;;;;;;;;;;;5029412;28;19926;-73
2022/01/18 05:34:36;;;;;;;;;;;;;;;;;;5027271;28;19925;-74
2022/01/18 05:37:03;;;;;;;;;;;;;;;;;;5030183;28;19932;-73
2022/01/18 05:39:30;;;;;;;;;;;;;;;;;;5028745;28;19948;-73
2022/01/18 05:41:57;;;;;;;;;;;;;;;;;;5026613;28;19929;-73
2022/01/18 05:44:25;;;;;;;;;;;;;;;;;;5027511;28;20443;-73
2022/01/18 05:46:52;;;;;;;;;;;;;;;;;;5024158;28;20008;-73
2022/01/18 05:49:19;;;;;;;;;;;;;;;;;;5027358;28;19932;-72
2022/01/18 05:51:46;;;;;;;;;;;;;;;;;;5026735;28;19931;-73
2022/01/18 05:54:13;;;;;;;;;;;;;;;;;;5023628;28;20012;-73
2022/01/18 05:56:40;;;;;;;;;;;;;;;;;;5030148;28;19948;-72
2022/01/18 05:59:09;;;;;;;;;;;;;;;;;;5027965;28;19980;-74
2022/01/18 06:01:46;;;;;;;;;;;;;;;;;;5021586;28;19976;-74
2022/01/18 06:06:49;;;;;;;;;;;;;;;;;;5027045;28;19955;-73
2022/01/18 06:07:04;;;;;;;;;;;;;;;;;;5025090;28;19933;-73
2022/01/18 06:09:31;;;;;;;;;;;;;;;;;;5027413;28;20402;-72
2022/01/18 06:11:58;;;;;;;;;;;;;;;;;;5020508;28;19925;-73
2022/01/18 06:14:25;;;;;;;;;;;;;;;;;;5024920;28;19988;-73
2022/01/18 06:16:52;;;;;;;;;;;;;;;;;;5023937;28;19929;-72
2022/01/18 06:19:19;;;;;;;;;;;;;;;;;;5025823;28;19925;-73
2022/01/18 06:21:46;;;;;;;;;;;;;;;;;;5024900;28;20299;-73
2022/01/18 06:24:13;;;;;;;;;;;;;;;;;;5025910;28;20382;-73
2022/01/18 06:26:40;;;;;;;;;;;;;;;;;;5025229;28;19926;-73
2022/01/18 06:29:06;;;;;;;;;;;;;;;;;;5024314;28;19925;-72
2022/01/18 06:31:33;;;;;;;;;;;;;;;;;;5024990;28;20016;-72
2022/01/18 06:34:00;;;;;;;;;;;;;;;;;;5027414;28;19925;-73
2022/01/18 06:36:27;;;;;;;;;;;;;;;;;;5028821;28;19932;-73
2022/01/18 06:38:54;;;;;;;;;;;;;;;;;;5028161;28;19925;-72
2022/01/18 06:41:21;;;;;;;;;;;;;;;;;;5026506;28;19925;-73
2022/01/18 06:43:48;;;;;;;;;;;;;;;;;;5023954;28;19932;-72
2022/01/18 06:46:15;;;;;;;;;;;;;;;;;;5024789;28;19940;-72
2022/01/18 06:48:44;;;;;;;;;;;;;;;;;;5020681;28;19929;-73
2022/01/18 06:51:11;;;;;;;;;;;;;;;;;;5026540;28;19929;-72
2022/01/18 06:53:44;;;;;;;;;;;;;;;;;;5025198;28;19925;-73
2022/01/18 06:56:11;;;;;;;;;;;;;;;;;;5025030;28;19925;-72
2022/01/18 06:58:39;;;;;;;;;;;;;;;;;;5025567;28;19925;-72
2022/01/18 07:01:06;;;;;;;;;;;;;;;;;;5028955;28;19926;-72
2022/01/18 07:03:33;;;;;;;;;;;;;;;;;;5028180;28;19925;-72
2022/01/18 07:06:00;;;;;;;;;;;;;;;;;;5027504;28;20432;-72
2022/01/18 07:08:27;;;;;;;;;;;;;;;;;;5018493;28;20096;-72
2022/01/18 07:10:54;;;;;;;;;;;;;;;;;;5026516;28;19935;-72
2022/01/18 07:13:21;;;;;;;;;;;;;;;;;;5024189;28;19925;-72
2022/01/18 07:15:48;;;;;;;;;;;;;;;;;;5030521;28;19933;-73
2022/01/18 07:18:15;;;;;;;;;;;;;;;;;;5022865;28;19932;-73
2022/01/18 07:20:41;;;;;;;;;;;;;;;;;;5025456;28;19929;-72
2022/01/18 07:23:11;;;;;;;;;;;;;;;;;;5027437;28;19971;-72
2022/01/18 07:25:42;;;;;;;;;;;;;;;;;;5021327;28;19926;-73
2022/01/18 07:28:09;;;;;;;;;;;;;;;;;;5024530;28;19929;-73
2022/01/18 07:30:36;;;;;;;;;;;;;;;;;;5025358;28;20314;-72
2022/01/18 07:33:03;;;;;;;;;;;;;;;;;;5025807;28;20012;-68
2022/01/18 07:35:31;;;;;;;;;;;;;;;;;;5021703;28;19925;-71
2022/01/18 07:38:00;;;;;;;;;;;;;;;;;;5018157;28;20015;-68
2022/01/18 07:40:27;;;;;;;;;;;;;;;;;;5012958;28;19939;-68
2022/01/18 07:42:54;;;;;;;;;;;;;;;;;;5023644;28;19952;-69
2022/01/18 07:45:21;;;;;;;;;;;;;;;;;;5021440;28;20421;-69
2022/01/18 07:47:48;;;;;;;;;;;;;;;;;;5018795;28;19932;-70
2022/01/18 07:50:14;;;;;;;;;;;;;;;;;;5022468;28;19933;-71
2022/01/18 07:52:41;;;;;;;;;;;;;;;;;;5018459;28;20306;-70
2022/01/18 07:55:08;;;;;;;;;;;;;;;;;;5021623;28;19926;-71
2022/01/18 07:57:37;;;;;;;;;;;;;;;;;;5027827;28;19925;-71
2022/01/18 08:00:04;;;;;;;;;;;;;;;;;;5016859;28;19929;-71
2022/01/18 08:02:32;;;;;;;;;;;;;;;;;;5009211;28;19933;-71
2022/01/18 08:04:59;;;;;;;;;;;;;;;;;;5017065;28;20122;-69
2022/01/18 08:07:26;;;;;;;;;;;;;;;;;;5016594;28;19933;-69
2022/01/18 08:09:53;;;;;;;;;;;;;;;;;;5017755;28;19932;-69
2022/01/18 08:12:19;;;;;;;;;;;;;;;;;;5017179;28;20120;-69
2022/01/18 08:14:47;;;;;;;;;;;;;;;;;;5011404;28;19947;-70
2022/01/18 08:17:14;;;;;;;;;;;;;;;;;;5018488;28;20087;-70
2022/01/18 08:19:41;;;;;;;;;;;;;;;;;;5013400;28;19929;-70
2022/01/18 08:22:08;;;;;;;;;;;;;;;;;;5020597;28;19948;-71
2022/01/18 08:24:35;;;;;;;;;;;;;;;;;;5023828;28;20395;-71
2022/01/18 08:27:02;;;;;;;;;;;;;;;;;;5021520;28;19936;-71
2022/01/18 08:29:29;;;;;;;;;;;;;;;;;;5020509;28;21588;-71
2022/01/18 08:31:56;;;;;;;;;;;;;;;;;;5019756;28;19928;-71
2022/01/18 08:34:23;;;;;;;;;;;;;;;;;;5022263;28;20134;-72
2022/01/18 08:36:51;;;;;;;;;;;;;;;;;;5023858;28;19933;-71
2022/01/18 08:39:18;;;;;;;;;;;;;;;;;;5024382;28;20059;-70
2022/01/18 08:41:45;;;;;;;;;;;;;;;;;;5020400;28;19934;-70
2022/01/18 08:44:11;;;;;;;;;;;;;;;;;;5020406;28;19929;-70
2022/01/18 08:46:38;;;;;;;;;;;;;;;;;;5019485;28;19941;-71
2022/01/18 08:49:05;;;;;;;;;;;;;;;;;;5023823;28;20398;-71
2022/01/18 08:51:32;;;;;;;;;;;;;;;;;;5023535;28;20028;-72
2022/01/18 08:53:59;;;;;;;;;;;;;;;;;;5023077;28;19929;-70
2022/01/18 08:56:26;;;;;;;;;;;;;;;;;;5026018;28;20105;-70
2022/01/18 08:58:53;;;;;;;;;;;;;;;;;;5023221;28;20021;-70
2022/01/18 09:01:20;;;;;;;;;;;;;;;;;;5025122;28;19925;-70
2022/01/18 09:03:49;;;;;;;;;;;;;;;;;;5025473;28;19943;-69
2022/01/18 09:06:17;;;;;;;;;;;;;;;;;;5022481;28;20395;-70
2022/01/18 09:08:44;;;;;;;;;;;;;;;;;;5021338;28;20010;-70
2022/01/18 09:11:11;;;;;;;;;;;;;;;;;;5016708;28;19983;-70
2022/01/18 09:13:38;;;;;;;;;;;;;;;;;;5021074;28;19933;-70
2022/01/18 09:16:09;;;;;;;;;;;;;;;;;;5019661;28;19930;-70
2022/01/18 09:18:36;;;;;;;;;;;;;;;;;;5023127;28;19971;-70
2022/01/18 09:21:03;;;;;;;;;;;;;;;;;;5019616;28;19926;-70
2022/01/18 09:23:30;;;;;;;;;;;;;;;;;;5024780;28;19933;-71
2022/01/18 09:25:57;;;;;;;;;;;;;;;;;;5024866;28;19925;-71
2022/01/18 09:28:24;;;;;;;;;;;;;;;;;;5023471;28;20294;-71
2022/01/18 09:30:51;;;;;;;;;;;;;;;;;;5025804;28;19925;-70
2022/01/18 09:33:18;;;;;;;;;;;;;;;;;;5019637;28;20290;-70
2022/01/18 09:35:45;;;;;;;;;;;;;;;;;;5021414;28;20011;-70
2022/01/18 09:38:12;;;;;;;;;;;;;;;;;;5024311;28;19929;-71
2022/01/18 09:40:39;;;;;;;;;;;;;;;;;;5020371;28;20357;-70
2022/01/18 09:43:10;;;;;;;;;;;;;;;;;;5024729;28;19955;-71
2022/01/18 09:45:39;;;;;;;;;;;;;;;;;;5024746;28;19951;-70
2022/01/18 09:48:06;;;;;;;;;;;;;;;;;;5024085;28;19925;-70
2022/01/18 09:50:33;;;;;;;;;;;;;;;;;;5021178;28;20555;-70
2022/01/18 09:53:00;;;;;;;;;;;;;;;;;;5022318;28;19925;-70
2022/01/18 09:55:27;;;;;;;;;;;;;;;;;;5004115;28;19926;-70
2022/01/18 09:57:54;;;;;;;;;;;;;;;;;;5013581;28;19955;-70
2022/01/18 10:00:21;;;;;;;;;;;;;;;;;;5023043;28;20083;-70
2022/01/18 10:02:48;;;;;;;;;;;;;;;;;;5025565;28;20371;-70
2022/01/18 10:05:15;;;;;;;;;;;;;;;;;;5028584;28;19925;-70
2022/01/18 10:07:42;;;;;;;;;;;;;;;;;;5024836;28;20024;-70
2022/01/18 10:10:09;;;;;;;;;;;;;;;;;;5029029;28;20004;-70
2022/01/18 10:12:36;;;;;;;;;;;;;;;;;;5019112;28;19940;-69
2022/01/18 10:15:03;;;;;;;;;;;;;;;;;;5024568;28;19931;-70
2022/01/18 10:17:30;;;;;;;;;;;;;;;;;;5020703;28;19944;-70
2022/01/18 10:19:57;;;;;;;;;;;;;;;;;;5026587;28;19933;-70
2022/01/18 10:22:31;;;;;;;;;;;;;;;;;;5024354;28;19936;-71
2022/01/18 10:24:58;;;;;;;;;;;;;;;;;;5024280;28;20822;-72
2022/01/18 10:27:25;;;;;;;;;;;;;;;;;;5026787;28;19975;-71
2022/01/18 10:29:52;;;;;;;;;;;;;;;;;;5022933;28;19952;-72
2022/01/18 10:32:23;;;;;;;;;;;;;;;;;;5013345;28;23022;-70
2022/01/18 10:35:07;;;;;;;;;;;;;;;;;;5022167;28;19934;-71
2022/01/18 10:37:35;;;;;;;;;;;;;;;;;;5022119;28;20243;-71
2022/01/18 10:40:02;;;;;;;;;;;;;;;;;;5023885;28;19983;-71
2022/01/18 10:42:32;;;;;;;;;;;;;;;;;;5025128;28;19925;-71
2022/01/18 10:44:59;;;;;;;;;;;;;;;;;;5027660;28;19925;-71
2022/01/18 10:47:26;;;;;;;;;;;;;;;;;;5026639;28;19932;-72
2022/01/18 10:49:53;;;;;;;;;;;;;;;;;;5024546;28;20302;-70
2022/01/18 10:52:21;;;;;;;;;;;;;;;;;;5020973;28;19933;-70
2022/01/18 10:54:48;;;;;;;;;;;;;;;;;;5024099;28;20310;-70
2022/01/18 10:57:14;;;;;;;;;;;;;;;;;;5024638;28;19926;-70
2022/01/18 10:59:41;;;;;;;;;;;;;;;;;;5024850;28;19936;-70
2022/01/18 11:02:10;;;;;;;;;;;;;;;;;;5026721;28;19925;-70
2022/01/18 11:04:37;;;;;;;;;;;;;;;;;;5027436;28;19932;-70
2022/01/18 11:07:04;;;;;;;;;;;;;;;;;;5020517;28;19931;-71
2022/01/18 11:09:31;;;;;;;;;;;;;;;;;;5023445;28;19929;-69
2022/01/18 11:11:58;;;;;;;;;;;;;;;;;;5026607;28;19925;-69
2022/01/18 11:14:25;;;;;;;;;;;;;;;;;;5023898;28;19968;-70
2022/01/18 11:16:55;;;;;;;;;;;;;;;;;;5024196;28;19936;-69
2022/01/18 11:19:32;;;;;;;;;;;;;;;;;;5023376;28;19933;-71
2022/01/18 11:21:58;;;;;;;;;;;;;;;;;;5026564;28;19992;-71
2022/01/18 11:24:25;;;;;;;;;;;;;;;;;;5022424;28;19936;-71
2022/01/18 11:26:52;;;;;;;;;;;;;;;;;;5022537;28;19925;-72
2022/01/18 11:29:19;;;;;;;;;;;;;;;;;;5019822;28;20315;-70
2022/01/18 11:31:46;;;;;;;;;;;;;;;;;;5028251;28;19972;-70
2022/01/18 11:34:13;;;;;;;;;;;;;;;;;;5025817;28;20397;-70
2022/01/18 11:36:40;;;;;;;;;;;;;;;;;;5025317;28;19936;-69
2022/01/18 11:39:07;;;;;;;;;;;;;;;;;;5023736;28;20299;-70
2022/01/18 11:41:35;;;;;;;;;;;;;;;;;;5028681;28;19932;-69
2022/01/18 11:44:02;;;;;;;;;;;;;;;;;;5026238;28;19957;-69
2022/01/18 11:46:29;;;;;;;;;;;;;;;;;;5022648;28;19929;-72
2022/01/18 11:48:56;;;;;;;;;;;;;;;;;;5024367;28;19930;-71
2022/01/18 11:51:23;;;;;;;;;;;;;;;;;;5027258;28;19932;-70
2022/01/18 11:54:06;;;;;;;;;;;;;;;;;;5023267;28;19951;-68
2022/01/18 11:56:33;;;;;;;;;;;;;;;;;;5020306;28;19936;-70
2022/01/18 11:59:00;;;;;;;;;;;;;;;;;;5014691;28;19933;-71
2022/01/18 12:01:27;;;;;;;;;;;;;;;;;;5019555;28;19933;-70
2022/01/18 12:03:54;;;;;;;;;;;;;;;;;;5018009;28;20287;-70
2022/01/18 12:06:21;;;;;;;;;;;;;;;;;;5017835;28;20023;-71
2022/01/18 12:08:50;;;;;;;;;;;;;;;;;;5023935;28;19924;-71
2022/01/18 12:11:17;;;;;;;;;;;;;;;;;;5022871;28;20378;-71
2022/01/18 12:13:44;;;;;;;;;;;;;;;;;;5021903;28;19925;-71
2022/01/18 12:16:11;;;;;;;;;;;;;;;;;;5021529;28;19932;-72
2022/01/18 12:18:38;;;;;;;;;;;;;;;;;;5022719;28;19925;-72
2022/01/18 12:21:05;;;;;;;;;;;;;;;;;;5024524;28;19929;-72
2022/01/18 12:23:32;;;;;;;;;;;;;;;;;;5021326;28;19929;-72
2022/01/18 12:26:01;;;;;;;;;;;;;;;;;;5019239;28;20007;-72
2022/01/18 12:28:32;;;;;;;;;;;;;;;;;;5023959;28;19931;-72
2022/01/18 12:31:06;;;;;;;;;;;;;;;;;;5023089;28;19926;-71
2022/01/18 12:33:33;;;;;;;;;;;;;;;;;;5024036;28;19933;-72
2022/01/18 12:36:00;;;;;;;;;;;;;;;;;;5024105;28;20017;-73
2022/01/18 12:38:27;;;;;;;;;;;;;;;;;;5020716;28;20004;-72
2022/01/18 12:40:55;;;;;;;;;;;;;;;;;;5021172;28;19929;-71
2022/01/18 12:46:07;;;;;;;;;;;;;;;;;;5024857;28;20382;-71
2022/01/18 12:48:36;;;;;;;;;;;;;;;;;;5022902;28;19932;-71
2022/01/18 12:51:08;;;;;;;;;;;;;;;;;;5023739;28;19929;-70
2022/01/18 12:53:39;;;;;;;;;;;;;;;;;;5020190;28;19933;-71
2022/01/18 12:56:06;;;;;;;;;;;;;;;;;;5018733;28;20291;-70
2022/01/18 12:58:35;;;;;;;;;;;26.30;66.50;;;;;;5022650;28;19936;-71
2022/01/18 13:01:02;;;;;;;;;;;;;;;;;;5020258;28;19980;-71
2022/01/18 13:03:29;;;;;;;;;;;;;;;;;;5023010;28;19929;-71
2022/01/18 13:05:56;;;;;;;;;;;;;;;;;;5025511;28;19925;-72
2022/01/18 13:08:23;;;;;;;;;;;;;;;;;;5022312;28;20422;-72
2022/01/18 13:10:50;;;;;;;;;;;;;;;;;;5025120;28;19925;-72
2022/01/18 13:13:19;;;;;;;;;;;;;;;;;;5024398;28;20000;-72
2022/01/18 13:15:52;;;;;;;;;;;;;;;;;;5021393;28;19932;-71
2022/01/18 13:24:10;;;;;;;;;;;;;;;;;;5039127;28;19920;-70
2022/01/18 13:26:40;;;;;;;;;;;;;;;;;;5027017;28;19925;-70
2022/01/18 13:29:07;;;;;;;;;;;;;;;;;;5029248;28;20020;-69
2022/01/18 13:31:34;;;;;;;;;;;;;;;;;;5033630;28;19932;-70
2022/01/18 13:34:02;;;;;;;;;;;;;;;;;;5040628;28;19932;-69
2022/01/18 13:36:32;;;;;;;;;;;26.30;66.90;;;;;;5037830;28;19925;-69
2022/01/18 13:38:59;;;;;;;;;;;;;;;;;;5037432;28;20334;-71
2022/01/18 13:41:26;;;;;;;;;;;;;;;;;;5038526;28;20338;-71
2022/01/18 13:43:53;;;;;;;;;;;;;;;;;;5036447;28;19925;-72
2022/01/18 13:46:20;;;;;;;;;;;;;;;;;;5039950;28;19955;-70
2022/01/18 13:48:47;;;;;;;;;;;;;;;;;;5029934;28;20387;-70
2022/01/18 13:51:18;;;;;;;;;;;;;;;;;;5035309;28;19925;-70
2022/01/18 13:53:45;;;;;;;;;;;;;;;;;;5042236;28;19933;-70
2022/01/18 13:56:12;;;;;;;;;;;;;;;;;;5042453;28;19929;-70
2022/01/18 13:58:42;;;;;;;;;;;;;;;;;;5034075;28;19984;-70
2022/01/18 14:01:09;;;;;;;;;;;;;;;;;;5037171;28;19925;-69
2022/01/18 14:03:36;;;;;;;;;;;;;;;;;;5037578;28;19932;-70
2022/01/18 14:06:03;;;;;;;;;;;;;;;;;;5046048;28;19939;-69
2022/01/18 14:08:30;;;;;;;;;;;;;;;;;;5039172;28;19924;-69
2022/01/18 14:10:57;;;;;;;;;;;;;;;;;;5042718;28;19924;-69
2022/01/18 14:13:24;;;;;;;;;;;;;;;;;;5040608;28;20669;-69
2022/01/18 14:15:51;;;;;;;;;;;;;;;;;;5029675;28;20378;-69
2022/01/18 14:18:18;;;;;;;;;;;;;;;;;;5027346;28;19940;-69
2022/01/18 14:20:45;;;;;;;;;;;;;;;;;;5027590;28;19939;-70
2022/01/18 14:23:12;;;;;;;;;;;;;;;;;;5031920;28;19932;-70
2022/01/18 14:25:39;;;;;;;;;;;;;;;;;;5035290;28;19935;-70
2022/01/18 14:28:06;;;;;;;;;;;;;;;;;;5034991;28;19935;-70
2022/01/18 14:30:33;;;;;;;;;;;;;;;;;;5033709;28;19925;-70
2022/01/18 14:33:00;;;;;;;;;;;;;;;;;;5037379;28;19925;-69
2022/01/18 14:35:27;;;;;;;;;;;;;;;;;;5036957;28;19931;-71
2022/01/18 14:37:54;;;;;;;;;;;;;;;;;;5038201;28;19967;-70
2022/01/18 14:40:21;;;;;;;;;;;;;;;;;;5037387;28;20381;-71
2022/01/18 14:42:49;;;;;;;;;;;;;;;;;;5039936;28;19936;-70
2022/01/18 14:45:34;;;;;;;;;;;;;;;;;;5035531;28;19968;-69
2022/01/18 14:48:01;;;;;;;;;;;;;;;;;;5037341;28;19949;-71
2022/01/18 14:50:28;;;;;;;;;;;;;;;;;;5040927;28;19948;-71
2022/01/18 14:52:55;;;;;;;;;;;;;;;;;;5036616;28;20317;-71
2022/01/18 14:55:22;;;;;;;;;;;;;;;;;;5037704;28;19956;-71
2022/01/18 14:57:49;;;;;;;;;;;;;;;;;;5036251;28;19972;-69
2022/01/18 15:00:16;;;;;;;;;;;;;;;;;;5035733;28;19935;-70
2022/01/18 15:02:43;;;;;;;;;;;;;;;;;;5033052;28;20247;-70
2022/01/18 15:05:10;;;;;;;;;;;;;;;;;;5035606;28;19924;-68
2022/01/18 15:07:37;;;;;;;;;;;;;;;;;;5035818;28;19956;-70
2022/01/18 15:10:06;;;;;;;;;;;;;;;;;;5043425;28;20390;-69
2022/01/18 15:12:33;;;;;;;;;;;;;;;;;;5038937;28;20412;-70
2022/01/18 15:15:00;;;;;;;;;;;;;;;;;;5026485;28;19925;-69
2022/01/18 15:17:27;;;;;;;;;;;;;;;;;;5029655;28;20386;-70
2022/01/18 15:19:54;;;;;;;;;;;;;;;;;;5036321;28;19994;-71
2022/01/18 15:22:21;;;;;;;;;;;;;;;;;;5035051;28;19929;-67
2022/01/18 15:24:48;;;;;;;;;;;;;;;;;;5031868;28;19936;-68
2022/01/18 15:27:16;;;;;;;;;;;;;;;;;;5039263;28;19931;-68
2022/01/18 15:29:45;;;;;;;;;;;;;;;;;;5032233;28;19932;-71
2022/01/18 15:32:12;;;;;;;;;;;;;;;;;;5042568;28;20534;-71
2022/01/18 15:34:39;;;;;;;;;;;;;;;;;;5030130;28;20196;-70
2022/01/18 15:37:06;;;;;;;;;;;;;;;;;;5032855;28;19928;-70
2022/01/18 15:39:34;;;;;;;;;;;;;;;;;;5027434;28;19933;-68
2022/01/18 15:42:01;;;;;;;;;;;;;;;;;;5026469;28;20527;-70
2022/01/18 15:44:28;;;;;;;;;;;;;;;;;;5030948;28;19924;-70
2022/01/18 15:46:55;;;;;;;;;;;;;;;;;;5032361;28;19925;-70
2022/01/18 15:49:23;;;;;;;;;;;;;;;;;;5026967;28;20287;-70
2022/01/18 15:51:50;;;;;;;;;;;;;;;;;;5030932;28;20304;-70
2022/01/18 15:54:17;;;;;;;;;;;;;;;;;;5029936;28;19935;-70
2022/01/18 15:56:45;;;;;;;;;;;;;;;;;;5027399;28;19925;-70
2022/01/18 15:59:12;;;;;;;;;;;;;;;;;;5015031;28;20338;-70
2022/01/18 16:01:39;;;;;;;;;;;;;;;;;;5031623;28;20357;-70
2022/01/18 16:04:06;;;;;;;;;;;;;;;;;;5035588;28;19936;-70
2022/01/18 16:06:33;;;;;;;;;;;;;;;;;;5032884;28;20012;-70
2022/01/18 16:09:00;;;;;;;;;;;;;;;;;;5028457;28;19968;-70
2022/01/18 16:11:27;;;;;;;;;;;;;;;;;;5035918;28;19971;-70
2022/01/18 16:13:54;;;;;;;;;;;;;;;;;;5039162;28;20016;-69
2022/01/18 16:16:21;;;;;;;;;;;;;;;;;;5037857;28;20011;-69
2022/01/18 16:18:48;;;;;;;;;;;;;;;;;;5033076;28;19931;-70
2022/01/18 16:21:15;;;;;;;;;;;;;;;;;;5036957;28;20353;-70
2022/01/18 16:23:43;;;;;;;;;;;;;;;;;;5023370;28;19928;-71
2022/01/18 16:26:10;;;;;;;;;;;;;;;;;;5024134;28;19937;-70
2022/01/18 16:28:37;;;;;;;;;;;;;;;;;;5024549;28;19925;-70
2022/01/18 16:31:04;;;;;;;;;;;;;;;;;;5027245;28;19926;-70
2022/01/18 16:33:31;;;;;;;;;;;;;;;;;;5026746;28;19929;-70
2022/01/18 16:35:58;;;;;;;;;;;;;;;;;;5028875;28;19925;-70
2022/01/18 16:38:25;;;;;;;;;;;;;;;;;;5035204;28;20287;-70
2022/01/18 16:40:51;;;;;;;;;;;;;;;;;;5032648;28;19925;-70
2022/01/18 16:43:18;;;;;;;;;;;;;;;;;;5027695;28;19925;-70
2022/01/18 16:45:48;;;;;;;;;;;;;;;;;;5025302;28;19925;-71
2022/01/18 16:48:15;;;;;;;;;;;;;;;;;;5037911;28;19968;-69
2022/01/18 16:50:42;;;;;;;;;;;;;;;;;;5038902;28;19929;-71
2022/01/18 16:53:09;;;;;;;;;;;;;;;;;;5032684;28;19932;-71
2022/01/18 16:55:38;;;;;;;;;;;;;;;;;;5031990;28;19929;-70
2022/01/18 16:58:05;;;;;;;;;;;;;;;;;;5034862;28;20379;-70
2022/01/18 17:00:32;;;;;;;;;;;;;;;;;;5034419;28;19925;-70
2022/01/18 17:02:59;;;;;;;;;;;;;;;;;;5035309;28;20028;-70
2022/01/18 17:05:27;;;;;;;;;;;;;;;;;;5034644;28;19943;-70
2022/01/18 17:07:54;;;;;;;;;;;;;;;;;;5036948;28;19929;-70
2022/01/18 17:10:20;;;;;;;;;;;;;;;;;;5035466;28;19925;-69
2022/01/18 17:12:47;;;;;;;;;;;;;;;;;;5030877;28;19968;-69
2022/01/18 17:15:14;;;;;;;;;;;;;;;;;;5030957;28;19933;-69
2022/01/18 17:17:41;;;;;;;;;;;;;;;;;;5032912;28;19925;-68
2022/01/18 17:20:08;;;;;;;;;;;;;;;;;;5033651;28;20019;-68
2022/01/18 17:22:35;;;;;;;;;;;;;;;;;;5026404;28;19939;-68
2022/01/18 17:25:02;;;;;;;;;;;;;;;;;;5034679;28;19925;-69
2022/01/18 17:27:29;;;;;;;;;;;;;;;;;;5033895;28;19925;-68
2022/01/18 17:29:56;;;;;;;;;;;;;;;;;;5031351;28;19925;-67
2022/01/18 17:32:25;;;;;;;;;;;;;;;;;;5027098;28;19932;-69
2022/01/18 17:34:52;;;;;;;;;;;;;;;;;;5032569;28;19964;-70
2022/01/18 17:37:19;;;;;;;;;;;;;;;;;;5030790;28;19999;-70
2022/01/18 17:39:46;;;;;;;;;;;;;;;;;;5034586;28;19925;-70